createdAt,value
2022-12-18T00:01:07.346Z,98387.44
2022-12-18T00:03:34.847Z,98382.25
2022-12-18T00:06:01.675Z,98379.63
2022-12-18T00:08:29.059Z,98386.56
2022-12-18T00:10:56.114Z,98398.75
2022-12-18T00:13:28.365Z,98394.38
2022-12-18T00:15:56.721Z,98403.06
2022-12-18T00:18:23.466Z,98410.88
2022-12-18T00:20:50.063Z,98416.97
2022-12-18T00:23:16.719Z,98419.53
2022-12-18T00:25:43.331Z,98426.50
2022-12-18T00:28:09.946Z,98423.91
2022-12-18T00:30:36.660Z,98428.25
2022-12-18T00:33:03.317Z,98444.72
2022-12-18T00:35:29.957Z,98449.91
2022-12-18T00:37:56.550Z,98453.41
2022-12-18T00:40:23.163Z,98455.13
2022-12-18T00:42:58.951Z,98453.38
2022-12-18T00:45:30.818Z,98458.59
2022-12-18T00:47:58.186Z,98471.66
2022-12-18T00:50:26.630Z,98471.69
2022-12-18T00:52:53.330Z,98470.84
2022-12-18T00:55:19.954Z,98466.47
2022-12-18T00:57:46.706Z,98480.34
2022-12-18T01:00:16.098Z,98478.56
2022-12-18T01:02:43.206Z,98483.78
2022-12-18T01:05:12.256Z,98494.19
2022-12-18T01:07:39.055Z,98495.97
2022-12-18T01:10:06.635Z,98493.34
2022-12-18T01:12:33.686Z,98498.53
2022-12-18T01:15:00.421Z,98506.31
2022-12-18T01:17:27.061Z,98507.19
2022-12-18T01:19:54.514Z,98510.69
2022-12-18T01:22:21.152Z,98501.94
2022-12-18T01:24:47.703Z,98512.31
2022-12-18T01:27:14.515Z,98506.28
2022-12-18T01:29:41.112Z,98520.19
2022-12-18T01:32:07.958Z,98519.34
2022-12-18T01:34:36.104Z,98519.38
2022-12-18T01:37:05.067Z,98522.88
2022-12-18T01:39:33.036Z,98523.78
2022-12-18T01:42:04.030Z,98521.09
2022-12-18T01:44:52.288Z,98535.81
2022-12-18T01:47:25.449Z,98534.09
2022-12-18T01:49:52.650Z,98534.00
2022-12-18T01:52:21.247Z,98537.50
2022-12-18T01:54:49.961Z,98533.09
2022-12-18T01:57:17.149Z,98546.16
2022-12-18T01:59:46.396Z,98552.16
2022-12-18T02:02:13.719Z,98552.97
2022-12-18T02:04:49.156Z,98551.25
2022-12-18T02:07:44.681Z,98552.97
2022-12-18T02:10:14.091Z,98547.72
2022-12-18T02:12:53.923Z,98556.50
2022-12-18T02:15:29.853Z,98560.03
2022-12-18T02:18:12.132Z,98565.13
2022-12-18T02:20:54.591Z,98562.50
2022-12-18T02:23:40.199Z,98571.13
2022-12-18T02:26:07.245Z,98568.53
2022-12-18T02:28:43.599Z,98575.47
2022-12-18T02:31:15.383Z,98572.06
2022-12-18T02:33:45.327Z,98575.63
2022-12-18T02:36:14.541Z,98585.88
2022-12-18T02:38:42.618Z,98584.19
2022-12-18T02:41:09.311Z,98594.47
2022-12-18T02:43:36.063Z,98598.78
2022-12-18T02:46:31.097Z,98608.41
2022-12-18T02:49:18.879Z,98603.97
2022-12-18T02:51:56.505Z,98604.78
2022-12-18T02:55:01.772Z,98610.84
2022-12-18T02:57:30.961Z,98609.97
2022-12-18T03:00:07.035Z,98605.72
2022-12-18T03:02:58.411Z,98612.59
2022-12-18T03:05:42.887Z,98613.50
2022-12-18T03:08:22.869Z,98620.50
2022-12-18T03:11:10.539Z,98613.47
2022-12-18T03:13:44.662Z,98622.16
2022-12-18T03:16:16.284Z,98623.91
2022-12-18T03:19:03.812Z,98626.66
2022-12-18T03:21:37.963Z,98626.72
2022-12-18T03:24:08.684Z,98637.97
2022-12-18T03:26:37.672Z,98644.06
2022-12-18T03:29:10.137Z,98647.63
2022-12-18T03:31:41.073Z,98657.81
2022-12-18T03:34:16.251Z,98661.38
2022-12-18T03:36:42.901Z,98663.13
2022-12-18T03:39:09.605Z,98660.56
2022-12-18T03:41:46.143Z,98668.38
2022-12-18T03:44:14.965Z,98672.59
2022-12-18T03:46:50.623Z,98675.94
2022-12-18T03:49:38.689Z,98676.94
2022-12-18T03:52:25.521Z,98676.19
2022-12-18T03:54:54.341Z,98674.44
2022-12-18T03:57:24.004Z,98681.38
2022-12-18T03:59:56.377Z,98684.81
2022-12-18T04:02:25.669Z,98698.69
2022-12-18T04:04:54.832Z,98695.22
2022-12-18T04:07:22.371Z,98702.09
2022-12-18T04:09:52.139Z,98702.09
2022-12-18T04:12:18.779Z,98707.28
2022-12-18T04:14:45.918Z,98702.03
2022-12-18T04:17:12.765Z,98708.06
2022-12-18T04:19:39.631Z,98715.09
2022-12-18T04:22:07.636Z,98716.88
2022-12-18T04:24:34.247Z,98719.53
2022-12-18T04:27:00.870Z,98716.13
2022-12-18T04:29:27.403Z,98723.81
2022-12-18T04:31:53.989Z,98721.16
2022-12-18T04:34:20.849Z,98723.78
2022-12-18T04:36:47.578Z,98728.94
2022-12-18T04:39:14.724Z,98727.03
2022-12-18T04:41:42.192Z,98733.22
2022-12-18T04:44:08.890Z,98738.47
2022-12-18T04:46:35.712Z,98737.56
2022-12-18T04:49:02.483Z,98741.91
2022-12-18T04:51:29.101Z,98752.25
2022-12-18T04:53:55.788Z,98751.34
2022-12-18T04:56:22.697Z,98751.38
2022-12-18T04:58:50.020Z,98757.47
2022-12-18T05:01:18.670Z,98762.69
2022-12-18T05:03:45.703Z,98769.59
2022-12-18T05:06:12.546Z,98765.22
2022-12-18T05:08:39.345Z,98763.41
2022-12-18T05:11:11.743Z,98767.88
2022-12-18T05:13:39.405Z,98767.09
2022-12-18T05:16:07.327Z,98778.31
2022-12-18T05:18:34.289Z,98782.47
2022-12-18T05:21:01.350Z,98787.75
2022-12-18T05:23:28.698Z,98795.31
2022-12-18T05:25:58.691Z,98799.69
2022-12-18T05:28:27.437Z,98805.03
2022-12-18T05:30:56.641Z,98808.56
2022-12-18T05:33:25.554Z,98805.03
2022-12-18T05:35:57.240Z,98807.78
2022-12-18T05:38:25.513Z,98820.84
2022-12-18T05:40:52.881Z,98824.34
2022-12-18T05:43:21.506Z,98832.91
2022-12-18T05:45:49.286Z,98830.28
2022-12-18T05:48:16.561Z,98837.22
2022-12-18T05:50:46.557Z,98848.53
2022-12-18T05:53:14.146Z,98848.53
2022-12-18T05:55:42.513Z,98849.44
2022-12-18T05:58:10.795Z,98851.16
2022-12-18T06:00:42.331Z,98861.38
2022-12-18T06:03:10.674Z,98857.91
2022-12-18T06:05:45.533Z,98873.56
2022-12-18T06:08:14.216Z,98886.56
2022-12-18T06:10:42.103Z,98882.00
2022-12-18T06:13:09.043Z,98893.09
2022-12-18T06:15:39.975Z,98891.34
2022-12-18T06:18:06.718Z,98903.72
2022-12-18T06:20:34.216Z,98905.22
2022-12-18T06:23:01.282Z,98906.91
2022-12-18T06:25:28.170Z,98914.00
2022-12-18T06:27:55.146Z,98911.44
2022-12-18T06:30:21.770Z,98916.53
2022-12-18T06:32:54.623Z,98912.31
2022-12-18T06:35:23.395Z,98924.47
2022-12-18T06:37:50.075Z,98933.13
2022-12-18T06:40:17.326Z,98941.69
2022-12-18T06:42:43.950Z,98947.47
2022-12-18T06:45:10.927Z,98950.91
2022-12-18T06:47:37.541Z,98947.44
2022-12-18T06:50:04.505Z,98956.72
2022-12-18T06:52:33.162Z,98960.13
2022-12-18T06:54:59.853Z,98961.81
2022-12-18T06:57:26.500Z,98962.97
2022-12-18T06:59:53.576Z,98970.94
2022-12-18T07:02:20.281Z,98973.34
2022-12-18T07:04:46.860Z,98969.72
2022-12-18T07:07:13.490Z,98978.28
2022-12-18T07:09:40.040Z,98984.50
2022-12-18T07:12:07.907Z,98987.16
2022-12-18T07:14:35.288Z,98987.13
2022-12-18T07:17:03.055Z,98986.19
2022-12-18T07:19:30.746Z,98991.59
2022-12-18T07:21:57.856Z,98989.03
2022-12-18T07:24:24.723Z,98987.44
2022-12-18T07:26:51.333Z,98995.19
2022-12-18T07:29:17.954Z,98999.69
2022-12-18T07:31:45.124Z,98999.69
2022-12-18T07:34:14.160Z,99004.66
2022-12-18T07:36:44.227Z,99001.38
2022-12-18T07:39:12.343Z,99009.44
2022-12-18T07:41:43.756Z,99012.91
2022-12-18T07:44:14.199Z,99011.25
2022-12-18T07:46:41.503Z,99018.16
2022-12-18T07:49:08.168Z,99020.00
2022-12-18T07:51:34.758Z,99013.88
2022-12-18T07:54:01.391Z,99024.34
2022-12-18T07:56:29.420Z,99032.22
2022-12-18T07:58:58.109Z,99040.09
2022-12-18T08:01:25.411Z,99038.91
2022-12-18T08:03:55.169Z,99046.50
2022-12-18T08:06:22.756Z,99049.16
2022-12-18T08:08:55.510Z,99051.97
2022-12-18T08:11:24.188Z,99051.06
2022-12-18T08:13:53.774Z,99053.66
2022-12-18T08:16:21.005Z,99061.69
2022-12-18T08:18:48.344Z,99061.78
2022-12-18T08:21:23.871Z,99068.78
2022-12-18T08:23:51.685Z,99066.59
2022-12-18T08:26:18.871Z,99075.28
2022-12-18T08:28:46.064Z,99078.97
2022-12-18T08:31:12.796Z,99072.94
2022-12-18T08:33:40.720Z,99078.22
2022-12-18T08:36:10.148Z,99074.69
2022-12-18T08:38:37.195Z,99075.56
2022-12-18T08:41:06.940Z,99078.09
2022-12-18T08:43:52.136Z,99085.78
2022-12-18T08:46:19.738Z,99078.44
2022-12-18T08:48:47.009Z,99076.66
2022-12-18T08:51:14.029Z,99075.91
2022-12-18T08:53:41.195Z,99080.66
2022-12-18T08:56:08.659Z,99079.09
2022-12-18T08:58:35.271Z,99092.09
2022-12-18T09:01:03.193Z,99081.75
2022-12-18T09:03:30.270Z,99087.91
2022-12-18T09:05:57.200Z,99082.44
2022-12-18T09:08:23.890Z,99080.47
2022-12-18T09:10:51.457Z,99095.50
2022-12-18T09:13:19.435Z,99082.28
2022-12-18T09:15:49.006Z,99085.63
2022-12-18T09:18:17.447Z,99088.50
2022-12-18T09:20:44.708Z,99080.09
2022-12-18T09:23:12.295Z,99083.34
2022-12-18T09:25:39.848Z,99086.13
2022-12-18T09:28:11.366Z,99090.59
2022-12-18T09:30:39.931Z,99087.81
2022-12-18T09:33:06.846Z,99094.63
2022-12-18T09:35:40.573Z,99087.72
2022-12-18T09:38:08.009Z,99088.03
2022-12-18T09:40:40.722Z,99092.34
2022-12-18T09:43:11.835Z,99092.09
2022-12-18T09:45:50.493Z,99095.69
2022-12-18T09:48:24.845Z,99094.56
2022-12-18T09:50:53.448Z,99097.25
2022-12-18T09:53:28.986Z,99093.84
2022-12-18T09:55:57.472Z,99087.81
2022-12-18T09:58:43.538Z,99082.38
2022-12-18T10:01:24.186Z,99087.53
2022-12-18T10:03:52.608Z,99088.63
2022-12-18T10:06:28.153Z,99094.91
2022-12-18T10:09:06.229Z,99092.66
2022-12-18T10:12:09.549Z,99095.16
2022-12-18T10:15:14.690Z,99097.19
2022-12-18T10:18:07.891Z,99094.34
2022-12-18T10:20:42.439Z,99104.28
2022-12-18T10:23:41.391Z,99098.25
2022-12-18T10:26:13.078Z,99104.34
2022-12-18T10:28:42.283Z,99102.44
2022-12-18T10:31:18.129Z,99099.41
2022-12-18T10:33:44.953Z,99097.63
2022-12-18T10:36:12.386Z,99106.34
2022-12-18T10:38:39.729Z,99098.66
2022-12-18T10:41:26.966Z,99105.38
2022-12-18T10:44:16.954Z,99093.50
2022-12-18T10:46:49.038Z,99092.69
2022-12-18T10:49:28.335Z,99094.41
2022-12-18T10:52:17.169Z,99089.25
2022-12-18T10:55:05.306Z,99097.84
2022-12-18T10:57:42.648Z,99098.66
2022-12-18T11:00:30.579Z,99096.88
2022-12-18T11:02:57.867Z,99102.88
2022-12-18T11:05:33.396Z,99103.75
2022-12-18T11:08:00.846Z,99103.66
2022-12-18T11:10:34.597Z,99105.44
2022-12-18T11:13:25.932Z,99118.66
2022-12-18T11:15:53.216Z,99111.97
2022-12-18T11:18:35.607Z,99120.47
2022-12-18T11:21:16.587Z,99121.84
2022-12-18T11:23:53.772Z,99117.06
2022-12-18T11:26:21.281Z,99116.31
2022-12-18T11:28:53.150Z,99111.13
2022-12-18T11:31:26.404Z,99124.28
2022-12-18T11:34:27.652Z,99122.44
2022-12-18T11:36:47.589Z,99131.75
2022-12-18T11:39:46.085Z,99133.47
2022-12-18T11:42:21.181Z,99136.56
2022-12-18T11:45:13.794Z,99130.53
2022-12-18T11:47:50.133Z,99143.59
2022-12-18T11:50:38.426Z,99134.97
2022-12-18T11:53:06.409Z,99142.72
2022-12-18T11:55:51.374Z,99137.47
2022-12-18T11:58:29.367Z,99136.59
2022-12-18T12:01:08.166Z,99138.34
2022-12-18T12:03:46.916Z,99139.97
2022-12-18T12:06:23.531Z,99140.84
2022-12-18T12:09:35.095Z,99140.88
2022-12-18T12:12:23.168Z,99140.00
2022-12-18T12:15:14.127Z,99145.31
2022-12-18T12:17:51.380Z,99140.88
2022-12-18T12:20:34.765Z,99147.78
2022-12-18T12:23:27.703Z,99146.09
2022-12-18T12:26:05.082Z,99150.41
2022-12-18T12:29:10.898Z,99156.50
2022-12-18T12:31:59.021Z,99155.56
2022-12-18T12:34:48.776Z,99155.03
2022-12-18T12:37:21.284Z,99161.06
2022-12-18T12:39:53.219Z,99155.75
2022-12-18T12:43:04.525Z,99151.41
2022-12-18T12:45:48.686Z,99165.97
2022-12-18T12:48:24.173Z,99174.53
2022-12-18T12:50:51.469Z,99172.72
2022-12-18T12:53:30.500Z,99174.66
2022-12-18T12:55:58.614Z,99172.75
2022-12-18T12:58:43.435Z,99175.38
2022-12-18T13:01:28.525Z,99178.13
2022-12-18T13:04:02.170Z,99181.59
2022-12-18T13:06:31.527Z,99185.00
2022-12-18T13:09:00.324Z,99182.28
2022-12-18T13:12:06.790Z,99188.34
2022-12-18T13:14:39.898Z,99196.09
2022-12-18T13:17:16.873Z,99202.09
2022-12-18T13:19:44.281Z,99192.69
2022-12-18T13:22:29.712Z,99190.00
2022-12-18T13:24:56.432Z,99202.34
2022-12-18T13:27:46.936Z,99196.28
2022-12-18T13:30:32.493Z,99198.81
2022-12-18T13:33:19.384Z,99206.63
2022-12-18T13:35:49.017Z,99201.28
2022-12-18T13:38:38.210Z,99210.81
2022-12-18T13:41:19.944Z,99204.44
2022-12-18T13:43:52.727Z,99211.91
2022-12-18T13:46:25.437Z,99217.94
2022-12-18T13:49:13.739Z,99217.25
2022-12-18T13:52:00.545Z,99212.13
2022-12-18T13:54:40.071Z,99213.16
2022-12-18T13:57:33.971Z,99220.84
2022-12-18T14:00:18.201Z,99223.13
2022-12-18T14:02:46.747Z,99223.19
2022-12-18T14:05:45.771Z,99234.25
2022-12-18T14:08:17.751Z,99237.56
2022-12-18T14:10:49.038Z,99232.53
2022-12-18T14:13:22.387Z,99243.03
2022-12-18T14:15:50.238Z,99248.16
2022-12-18T14:18:24.744Z,99245.59
2022-12-18T14:20:53.324Z,99247.28
2022-12-18T14:23:32.327Z,99250.03
2022-12-18T14:26:05.349Z,99251.72
2022-12-18T14:28:33.092Z,99262.25
2022-12-18T14:30:59.965Z,99254.44
2022-12-18T14:33:28.860Z,99259.59
2022-12-18T14:35:58.959Z,99257.75
2022-12-18T14:38:37.460Z,99257.03
2022-12-18T14:41:10.492Z,99267.31
2022-12-18T14:43:39.292Z,99269.63
2022-12-18T14:46:26.903Z,99275.69
2022-12-18T14:48:54.557Z,99287.66
2022-12-18T14:51:23.881Z,99278.31
2022-12-18T14:53:55.668Z,99277.47
2022-12-18T14:56:34.862Z,99280.91
2022-12-18T15:02:23.218Z,99282.81
2022-12-18T15:05:21.673Z,99285.28
2022-12-18T15:07:55.338Z,99291.06
2022-12-18T15:10:24.872Z,99286.81
2022-12-18T15:12:57.693Z,99298.75
2022-12-18T15:15:40.665Z,99299.78
2022-12-18T15:18:13.426Z,99305.94
2022-12-18T15:21:08.043Z,99313.41
2022-12-18T15:23:37.860Z,99308.84
2022-12-18T15:26:07.336Z,99322.47
2022-12-18T15:28:57.114Z,99319.72
2022-12-18T15:31:25.565Z,99329.72
2022-12-18T15:33:55.238Z,99323.66
2022-12-18T15:36:26.801Z,99330.75
2022-12-18T15:38:56.183Z,99329.09
2022-12-18T15:41:35.257Z,99335.97
2022-12-18T15:44:03.350Z,99340.97
2022-12-18T15:46:31.877Z,99336.09
2022-12-18T15:49:02.388Z,99340.22
2022-12-18T15:51:34.508Z,99339.34
2022-12-18T15:54:04.973Z,99337.69
2022-12-18T15:56:57.052Z,99348.06
2022-12-18T15:59:24.806Z,99342.16
2022-12-18T16:01:54.193Z,99359.47
2022-12-18T16:04:22.571Z,99352.47
2022-12-18T16:09:37.965Z,99367.69
2022-12-18T16:12:05.668Z,99373.72
2022-12-18T16:14:32.981Z,99379.25
2022-12-18T16:17:02.187Z,99385.31
2022-12-18T16:19:29.879Z,99391.41
2022-12-18T16:21:59.444Z,99394.78
2022-12-18T16:24:31.509Z,99393.66
2022-12-18T16:27:00.376Z,99411.91
2022-12-18T16:29:29.303Z,99407.66
2022-12-18T16:32:00.252Z,99397.34
2022-12-18T16:34:29.554Z,99407.75
2022-12-18T16:37:04.847Z,99406.03
2022-12-18T16:39:33.016Z,99413.56
2022-12-18T16:42:00.097Z,99416.22
2022-12-18T16:44:31.715Z,99418.06
2022-12-18T16:47:02.920Z,99414.19
2022-12-18T16:49:30.423Z,99418.66
2022-12-18T16:51:59.529Z,99423.97
2022-12-18T16:54:26.276Z,99417.75
2022-12-18T16:56:52.962Z,99412.53
2022-12-18T16:59:19.910Z,99408.31
2022-12-18T17:01:47.308Z,99410.00
2022-12-18T17:04:14.736Z,99405.06
2022-12-18T17:06:44.080Z,99408.31
2022-12-18T17:09:16.471Z,99412.69
2022-12-18T17:11:43.854Z,99413.41
2022-12-18T17:14:33.699Z,99406.78
2022-12-18T17:19:47.956Z,99407.69
2022-12-18T17:22:14.582Z,99415.34
2022-12-18T17:24:41.142Z,99412.53
2022-12-18T17:27:08.942Z,99419.53
2022-12-18T17:29:35.735Z,99417.56
2022-12-18T17:32:02.305Z,99413.03
2022-12-18T17:34:30.075Z,99416.69
2022-12-18T17:36:57.484Z,99415.53
2022-12-18T17:39:24.172Z,99420.84
2022-12-18T17:41:50.823Z,99425.31
2022-12-18T17:44:18.591Z,99428.03
2022-12-18T17:46:46.243Z,99423.94
2022-12-18T17:49:14.153Z,99428.38
2022-12-18T17:51:43.071Z,99434.25
2022-12-18T17:54:10.225Z,99429.66
2022-12-18T17:56:37.232Z,99431.75
2022-12-18T17:59:04.323Z,99435.56
2022-12-18T18:01:32.506Z,99436.94
2022-12-18T18:04:00.751Z,99441.09
2022-12-18T18:06:27.838Z,99444.22
2022-12-18T18:08:54.908Z,99443.28
2022-12-18T18:11:41.981Z,99450.09
2022-12-18T18:14:14.777Z,99451.84
2022-12-18T18:16:44.155Z,99445.78
2022-12-18T18:19:18.511Z,99456.44
2022-12-18T18:21:47.263Z,99454.72
2022-12-18T18:24:16.793Z,99456.50
2022-12-18T18:26:44.032Z,99448.75
2022-12-18T18:29:19.678Z,99458.59
2022-12-18T18:31:46.852Z,99450.81
2022-12-18T18:34:20.253Z,99450.03
2022-12-18T18:36:46.895Z,99452.00
2022-12-18T18:39:14.077Z,99455.38
2022-12-18T18:41:41.132Z,99456.69
2022-12-18T18:44:11.989Z,99461.63
2022-12-18T18:46:38.708Z,99471.25
2022-12-18T18:49:05.752Z,99475.31
2022-12-18T18:51:35.099Z,99472.97
2022-12-18T18:54:02.512Z,99471.69
2022-12-18T18:59:16.377Z,99476.13
2022-12-18T19:01:43.318Z,99483.81
2022-12-18T19:04:10.388Z,99492.63
2022-12-18T19:06:37.068Z,99490.22
2022-12-18T19:09:05.094Z,99504.66
2022-12-18T19:11:50.392Z,99501.13
2022-12-18T19:14:17.129Z,99506.66
2022-12-18T19:16:45.518Z,99507.34
2022-12-18T19:19:13.048Z,99501.22
2022-12-18T19:21:39.939Z,99501.22
2022-12-18T19:24:06.883Z,99505.59
2022-12-18T19:26:33.553Z,99513.47
2022-12-18T19:29:08.711Z,99511.63
2022-12-18T19:31:37.162Z,99509.22
2022-12-18T19:34:08.120Z,99512.69
2022-12-18T19:36:37.268Z,99504.88
2022-12-18T19:39:12.412Z,99510.13
2022-12-18T19:41:42.641Z,99513.66
2022-12-18T19:44:12.382Z,99520.47
2022-12-18T19:46:41.706Z,99515.31
2022-12-18T19:49:10.544Z,99508.22
2022-12-18T19:51:41.224Z,99512.81
2022-12-18T19:54:10.029Z,99513.56
2022-12-18T19:56:40.072Z,99516.66
2022-12-18T19:59:06.731Z,99525.56
2022-12-18T20:01:33.687Z,99526.63
2022-12-18T20:04:02.948Z,99531.72
2022-12-18T20:06:45.347Z,99531.09
2022-12-18T20:09:12.206Z,99540.78
2022-12-18T20:11:41.702Z,99536.56
2022-12-18T20:14:12.762Z,99533.84
2022-12-18T20:16:39.721Z,99532.03
2022-12-18T20:19:07.350Z,99538.25
2022-12-18T20:21:34.691Z,99536.56
2022-12-18T20:24:02.252Z,99534.13
2022-12-18T20:26:29.458Z,99533.00
2022-12-18T20:28:56.675Z,99527.59
2022-12-18T20:31:23.912Z,99535.59
2022-12-18T20:33:51.016Z,99537.53
2022-12-18T20:36:22.624Z,99547.13
2022-12-18T20:39:00.500Z,99543.41
2022-12-18T20:41:37.719Z,99543.38
2022-12-18T20:44:53.695Z,99532.13
2022-12-18T20:47:24.938Z,99531.38
2022-12-18T20:49:54.864Z,99529.44
2022-12-18T20:52:22.065Z,99531.00
2022-12-18T20:54:50.385Z,99529.38
2022-12-18T20:57:16.986Z,99537.88
2022-12-18T20:59:48.064Z,99541.66
2022-12-18T21:02:15.252Z,99540.50
2022-12-18T21:04:42.104Z,99538.56
2022-12-18T21:07:08.782Z,99540.41
2022-12-18T21:09:37.451Z,99536.75
2022-12-18T21:12:25.318Z,99544.28
2022-12-18T21:14:51.927Z,99546.00
2022-12-18T21:17:18.552Z,99546.78
2022-12-18T21:19:45.139Z,99549.94
2022-12-18T21:22:12.866Z,99554.13
2022-12-18T21:24:40.246Z,99546.47
2022-12-18T21:27:06.885Z,99555.31
2022-12-18T21:29:34.983Z,99560.41
2022-12-18T21:32:02.415Z,99555.84
2022-12-18T21:34:30.457Z,99553.28
2022-12-18T21:36:59.338Z,99555.28
2022-12-18T21:39:27.450Z,99554.41
2022-12-18T21:42:22.982Z,99557.78
2022-12-18T21:44:52.414Z,99560.41
2022-12-18T21:47:22.620Z,99562.03
2022-12-18T21:49:53.392Z,99553.28
2022-12-18T21:52:31.481Z,99555.03
2022-12-18T21:55:06.190Z,99553.28
2022-12-18T21:57:34.908Z,99548.91
2022-12-18T22:00:02.273Z,99554.22
2022-12-18T22:02:29.232Z,99556.00
2022-12-18T22:04:55.977Z,99556.00
2022-12-18T22:07:23.227Z,99549.13
2022-12-18T22:09:51.111Z,99554.38
2022-12-18T22:12:35.623Z,99554.97
2022-12-18T22:15:04.974Z,99561.00
2022-12-18T22:17:31.569Z,99558.34
2022-12-18T22:19:58.350Z,99560.03
2022-12-18T22:22:24.975Z,99565.13
2022-12-18T22:24:51.677Z,99565.06
2022-12-18T22:27:18.261Z,99572.03
2022-12-18T22:30:03.716Z,99574.44
2022-12-18T22:32:31.841Z,99578.56
2022-12-18T22:35:07.918Z,99574.94
2022-12-18T22:37:37.304Z,99573.00
2022-12-18T22:40:06.091Z,99572.16
2022-12-18T22:42:34.190Z,99568.56
2022-12-18T22:45:00.851Z,99564.16
2022-12-18T22:47:30.165Z,99571.72
2022-12-18T22:49:57.774Z,99570.09
2022-12-18T22:52:24.767Z,99577.16
2022-12-18T22:54:53.394Z,99585.78
2022-12-18T22:57:21.777Z,99583.91
2022-12-18T22:59:49.353Z,99584.75
2022-12-18T23:02:17.817Z,99585.47
2022-12-18T23:04:45.081Z,99586.31
2022-12-18T23:07:12.489Z,99586.16
2022-12-18T23:09:39.964Z,99586.19
2022-12-18T23:12:07.315Z,99593.94
2022-12-18T23:14:33.998Z,99585.91
2022-12-18T23:17:00.651Z,99591.91
2022-12-18T23:19:27.203Z,99588.28
2022-12-18T23:21:54.858Z,99583.91
2022-12-18T23:24:27.251Z,99588.91
2022-12-18T23:26:55.538Z,99579.09
2022-12-18T23:29:22.193Z,99580.81
2022-12-18T23:31:49.048Z,99577.19
2022-12-18T23:34:15.666Z,99573.88
2022-12-18T23:36:45.487Z,99581.34
2022-12-18T23:39:15.473Z,99573.47
2022-12-18T23:41:58.002Z,99568.13
2022-12-18T23:44:24.936Z,99576.44
2022-12-18T23:46:51.615Z,99572.75
2022-12-18T23:49:18.528Z,99583.78
2022-12-18T23:51:45.134Z,99581.97
2022-12-18T23:54:11.757Z,99581.03
2022-12-18T23:56:38.406Z,99584.41
2022-12-18T23:59:05.169Z,99587.81
